createdAt,value
2023-07-27T00:02:18.803Z,69.48
2023-07-27T00:04:45.977Z,69.23
2023-07-27T00:07:13.407Z,69.25
2023-07-27T00:09:40.655Z,69.33
2023-07-27T00:12:08.202Z,69.23
2023-07-27T00:14:35.486Z,69.49
2023-07-27T00:17:02.712Z,69.40
2023-07-27T00:19:30.635Z,69.51
2023-07-27T00:21:57.799Z,69.57
2023-07-27T00:24:24.963Z,69.29
2023-07-27T00:26:52.135Z,69.52
2023-07-27T00:29:20.130Z,69.84
2023-07-27T00:31:47.271Z,69.92
2023-07-27T00:34:14.410Z,69.99
2023-07-27T00:36:43.308Z,70.00
2023-07-27T00:39:13.600Z,70.25
2023-07-27T00:41:41.693Z,70.23
2023-07-27T00:44:08.863Z,70.44
2023-07-27T00:46:37.471Z,70.73
2023-07-27T00:49:05.257Z,71.10
2023-07-27T00:51:36.434Z,71.32
2023-07-27T00:54:04.257Z,71.35
2023-07-27T00:56:32.430Z,71.57
2023-07-27T00:59:03.041Z,71.61
2023-07-27T01:01:30.467Z,71.81
2023-07-27T01:03:57.726Z,72.05
2023-07-27T01:06:25.135Z,72.21
2023-07-27T01:08:52.842Z,72.45
2023-07-27T01:11:23.565Z,72.52
2023-07-27T01:14:12.783Z,72.74
2023-07-27T01:16:50.274Z,72.68
2023-07-27T01:19:56.067Z,72.85
2023-07-27T01:23:07.702Z,72.66
2023-07-27T01:26:12.152Z,72.67
2023-07-27T01:29:05.617Z,72.75
2023-07-27T01:31:42.548Z,72.41
2023-07-27T01:34:17.023Z,72.68
2023-07-27T01:36:44.513Z,72.38
2023-07-27T01:39:11.728Z,72.40
2023-07-27T01:41:42.750Z,72.27
2023-07-27T01:44:10.958Z,72.23
2023-07-27T01:46:38.481Z,72.18
2023-07-27T01:49:05.835Z,72.17
2023-07-27T01:51:32.963Z,72.22
2023-07-27T01:54:00.672Z,72.18
2023-07-27T01:56:27.836Z,72.04
2023-07-27T01:58:55.076Z,71.94
2023-07-27T02:01:22.383Z,72.07
2023-07-27T02:03:49.709Z,71.52
2023-07-27T02:06:16.969Z,71.52
2023-07-27T02:08:44.217Z,71.42
2023-07-27T02:11:12.418Z,71.39
2023-07-27T02:13:43.713Z,71.56
2023-07-27T02:16:51.111Z,71.44
2023-07-27T02:19:18.245Z,71.48
2023-07-27T02:21:45.800Z,71.45
2023-07-27T02:24:12.903Z,71.71
2023-07-27T02:26:40.328Z,71.42
2023-07-27T02:29:07.916Z,71.80
2023-07-27T02:31:35.076Z,71.71
2023-07-27T02:34:02.276Z,71.94
2023-07-27T02:36:31.557Z,72.12
2023-07-27T02:38:59.196Z,72.14
2023-07-27T02:41:26.482Z,72.73
2023-07-27T02:43:54.596Z,72.99
2023-07-27T02:46:25.612Z,73.17
2023-07-27T02:48:54.743Z,73.38
2023-07-27T02:51:22.542Z,73.31
2023-07-27T02:53:49.757Z,73.68
2023-07-27T02:56:22.493Z,74.01
2023-07-27T02:58:51.312Z,74.04
2023-07-27T03:01:19.848Z,74.43
2023-07-27T03:03:53.348Z,74.43
2023-07-27T03:06:20.691Z,74.53
2023-07-27T03:08:53.748Z,74.67
2023-07-27T03:11:21.086Z,75.08
2023-07-27T03:13:48.437Z,74.76
2023-07-27T03:16:15.591Z,74.89
2023-07-27T03:18:42.823Z,75.20
2023-07-27T03:21:12.071Z,74.98
2023-07-27T03:23:39.215Z,75.19
2023-07-27T03:26:12.938Z,75.37
2023-07-27T03:28:42.136Z,75.51
2023-07-27T03:31:16.894Z,75.91
2023-07-27T03:33:44.302Z,76.05
2023-07-27T03:36:11.474Z,76.36
2023-07-27T03:38:38.664Z,76.54
2023-07-27T03:41:05.965Z,76.90
2023-07-27T03:43:35.212Z,76.91
2023-07-27T03:46:03.196Z,76.99
2023-07-27T03:48:30.602Z,77.31
2023-07-27T03:51:01.834Z,77.44
2023-07-27T03:53:29.252Z,77.77
2023-07-27T03:55:56.490Z,78.01
2023-07-27T03:58:23.917Z,78.10
2023-07-27T04:00:51.203Z,78.06
2023-07-27T04:03:19.453Z,78.35
2023-07-27T04:05:46.626Z,78.56
2023-07-27T04:08:14.018Z,78.78
2023-07-27T04:10:41.682Z,79.12
2023-07-27T04:13:08.907Z,79.04
2023-07-27T04:15:36.337Z,78.92
2023-07-27T04:18:03.777Z,79.09
2023-07-27T04:20:31.057Z,79.26
2023-07-27T04:22:58.253Z,79.10
2023-07-27T04:25:25.588Z,78.91
2023-07-27T04:27:52.793Z,78.93
2023-07-27T04:30:20.271Z,78.83
2023-07-27T04:32:47.764Z,78.88
2023-07-27T04:35:14.974Z,78.93
2023-07-27T04:37:42.152Z,78.80
2023-07-27T04:40:09.560Z,78.73
2023-07-27T04:42:37.094Z,78.67
2023-07-27T04:45:04.612Z,78.60
2023-07-27T04:47:33.943Z,78.33
2023-07-27T04:50:01.169Z,78.24
2023-07-27T04:52:29.248Z,78.16
2023-07-27T04:54:56.554Z,78.17
2023-07-27T04:57:23.788Z,78.16
2023-07-27T04:59:51.364Z,78.04
2023-07-27T05:02:18.538Z,77.62
2023-07-27T05:04:45.787Z,77.32
2023-07-27T05:07:13.021Z,77.08
2023-07-27T05:09:40.294Z,76.67
2023-07-27T05:12:07.856Z,76.66
2023-07-27T05:14:36.740Z,76.17
2023-07-27T05:17:04.130Z,75.67
2023-07-27T05:19:31.443Z,75.32
2023-07-27T05:21:58.588Z,75.34
2023-07-27T05:24:26.116Z,75.07
2023-07-27T05:26:53.355Z,74.20
2023-07-27T05:29:20.555Z,74.10
2023-07-27T05:31:48.679Z,73.59
2023-07-27T05:34:16.355Z,73.29
2023-07-27T05:36:43.579Z,73.20
2023-07-27T05:39:10.828Z,73.12
2023-07-27T05:41:38.061Z,72.76
2023-07-27T05:44:08.060Z,73.02
2023-07-27T05:46:35.738Z,72.83
2023-07-27T05:49:05.033Z,72.42
2023-07-27T05:51:32.664Z,72.74
2023-07-27T05:53:59.987Z,72.85
2023-07-27T05:56:27.205Z,72.38
2023-07-27T05:58:54.433Z,72.24
2023-07-27T06:01:22.251Z,72.07
2023-07-27T06:04:05.334Z,71.70
2023-07-27T06:06:34.469Z,71.87
2023-07-27T06:09:01.878Z,72.25
2023-07-27T06:11:29.252Z,72.74
2023-07-27T06:13:56.743Z,72.06
2023-07-27T06:16:25.740Z,72.18
2023-07-27T06:18:53.062Z,71.63
2023-07-27T06:21:20.428Z,71.07
2023-07-27T06:23:47.637Z,70.51
2023-07-27T06:26:15.035Z,70.37
2023-07-27T06:28:42.206Z,70.05
2023-07-27T06:31:09.763Z,69.59
2023-07-27T06:33:36.870Z,68.70
2023-07-27T06:36:04.329Z,69.44
2023-07-27T06:38:31.650Z,68.78
2023-07-27T06:40:58.783Z,68.90
2023-07-27T06:43:26.083Z,68.36
2023-07-27T06:45:53.308Z,67.09
2023-07-27T06:48:20.535Z,66.87
2023-07-27T06:50:47.756Z,66.66
2023-07-27T06:53:15.040Z,66.35
2023-07-27T06:55:42.745Z,65.84
2023-07-27T06:58:09.999Z,65.65
2023-07-27T07:00:37.523Z,66.09
2023-07-27T07:03:04.914Z,65.52
2023-07-27T07:05:32.128Z,64.79
2023-07-27T07:07:59.803Z,64.30
2023-07-27T07:10:27.170Z,64.85
2023-07-27T07:12:54.330Z,63.84
2023-07-27T07:15:21.658Z,64.56
2023-07-27T07:17:48.947Z,64.34
2023-07-27T07:20:16.284Z,64.28
2023-07-27T07:22:43.566Z,64.80
2023-07-27T07:25:10.894Z,65.59
2023-07-27T07:27:38.442Z,64.82
2023-07-27T07:30:06.259Z,64.47
2023-07-27T07:32:35.121Z,65.09
2023-07-27T07:35:03.027Z,63.84
2023-07-27T07:37:30.391Z,62.78
2023-07-27T07:39:57.773Z,62.99
2023-07-27T07:42:24.995Z,61.85
2023-07-27T07:44:52.322Z,60.59
2023-07-27T07:47:19.530Z,60.20
2023-07-27T07:49:46.823Z,59.49
2023-07-27T07:52:14.868Z,60.14
2023-07-27T07:54:42.150Z,59.57
2023-07-27T07:57:09.389Z,58.94
2023-07-27T07:59:36.880Z,58.75
2023-07-27T08:02:04.593Z,58.46
2023-07-27T08:04:32.145Z,58.18
2023-07-27T08:06:59.513Z,57.78
2023-07-27T08:09:26.853Z,57.02
2023-07-27T08:11:54.358Z,58.01
2023-07-27T08:14:21.650Z,58.85
2023-07-27T08:16:49.058Z,58.20
2023-07-27T08:19:16.362Z,56.96
2023-07-27T08:21:43.602Z,56.23
2023-07-27T08:24:11.005Z,55.51
2023-07-27T08:26:38.227Z,54.64
2023-07-27T08:29:05.451Z,53.69
2023-07-27T08:31:33.228Z,53.34
2023-07-27T08:34:00.442Z,52.97
2023-07-27T08:36:27.747Z,53.54
2023-07-27T08:38:55.024Z,53.01
2023-07-27T08:41:22.793Z,53.59
2023-07-27T08:43:52.218Z,53.17
2023-07-27T08:46:20.358Z,53.13
2023-07-27T08:48:47.727Z,52.04
2023-07-27T08:51:15.386Z,52.55
2023-07-27T08:53:42.699Z,52.69
2023-07-27T08:56:10.132Z,52.23
2023-07-27T08:58:37.470Z,50.79
2023-07-27T09:01:04.599Z,51.22
2023-07-27T09:03:31.949Z,50.30
2023-07-27T09:06:00.445Z,50.39
2023-07-27T09:08:29.208Z,50.62
2023-07-27T09:11:04.636Z,50.49
2023-07-27T09:13:32.685Z,50.47
2023-07-27T09:16:01.322Z,51.31
2023-07-27T09:18:28.596Z,52.41
2023-07-27T09:20:56.708Z,51.16
2023-07-27T09:23:23.881Z,51.30
2023-07-27T09:25:57.359Z,51.22
2023-07-27T09:28:26.150Z,51.48
2023-07-27T09:30:55.960Z,52.21
2023-07-27T09:33:23.843Z,51.39
2023-07-27T09:35:51.385Z,50.51
2023-07-27T09:38:27.310Z,49.94
2023-07-27T09:40:54.689Z,50.47
2023-07-27T09:43:25.969Z,50.37
2023-07-27T09:46:00.347Z,50.16
2023-07-27T09:48:31.114Z,51.38
2023-07-27T09:50:59.814Z,50.89
2023-07-27T09:53:29.803Z,50.80
2023-07-27T09:55:57.762Z,50.86
2023-07-27T09:58:24.911Z,50.89
2023-07-27T10:00:52.116Z,50.62
2023-07-27T10:03:19.331Z,50.70
2023-07-27T10:05:46.604Z,50.04
2023-07-27T10:08:13.843Z,49.27
2023-07-27T10:10:41.868Z,49.53
2023-07-27T10:13:13.008Z,48.74
2023-07-27T10:15:43.995Z,48.39
2023-07-27T10:18:15.336Z,49.60
2023-07-27T10:20:42.763Z,49.00
2023-07-27T10:23:21.641Z,47.71
2023-07-27T10:25:57.910Z,45.78
2023-07-27T10:28:37.550Z,46.05
2023-07-27T10:31:26.967Z,46.45
2023-07-27T10:33:57.300Z,46.35
2023-07-27T10:36:48.139Z,43.97
2023-07-27T10:39:16.844Z,44.16
2023-07-27T10:42:07.254Z,43.41
2023-07-27T10:44:57.755Z,44.54
2023-07-27T10:47:29.099Z,43.18
2023-07-27T10:49:57.329Z,43.87
2023-07-27T10:52:32.319Z,42.63
2023-07-27T10:55:01.312Z,43.92
2023-07-27T10:57:33.413Z,42.24
2023-07-27T11:00:01.172Z,41.03
2023-07-27T11:02:37.369Z,39.02
2023-07-27T11:05:08.770Z,39.72
2023-07-27T11:07:40.330Z,40.45
2023-07-27T11:10:09.667Z,39.75
2023-07-27T11:12:50.355Z,40.25
2023-07-27T11:15:27.588Z,41.51
2023-07-27T11:17:56.012Z,41.32
2023-07-27T11:20:24.471Z,41.60
2023-07-27T11:22:52.548Z,40.20
2023-07-27T11:25:20.326Z,39.49
2023-07-27T11:27:49.670Z,39.30
2023-07-27T11:30:18.918Z,38.70
2023-07-27T11:33:18.768Z,39.29
2023-07-27T11:35:46.816Z,38.25
2023-07-27T11:38:14.134Z,38.77
2023-07-27T11:40:49.016Z,38.96
2023-07-27T11:43:16.212Z,40.67
2023-07-27T11:45:45.229Z,40.03
2023-07-27T11:48:13.749Z,40.52
2023-07-27T11:50:41.116Z,40.58
2023-07-27T11:53:17.483Z,38.90
2023-07-27T11:55:50.293Z,39.04
2023-07-27T11:58:17.770Z,39.09
2023-07-27T12:00:51.987Z,37.99
2023-07-27T12:03:23.590Z,38.34
2023-07-27T12:05:57.575Z,36.57
2023-07-27T12:13:59.023Z,37.26
2023-07-27T12:23:47.466Z,36.45
2023-07-27T12:28:45.106Z,35.43
2023-07-27T12:31:16.833Z,36.27
2023-07-27T12:34:00.678Z,35.85
2023-07-27T12:36:28.001Z,37.05
2023-07-27T12:38:55.290Z,36.33
2023-07-27T12:41:22.637Z,37.52
2023-07-27T12:43:49.885Z,36.43
2023-07-27T12:46:17.049Z,36.59
2023-07-27T12:48:45.072Z,36.51
2023-07-27T12:51:12.611Z,36.30
2023-07-27T12:53:41.730Z,36.72
2023-07-27T12:56:10.451Z,36.69
2023-07-27T12:58:37.668Z,36.69
2023-07-27T13:01:04.838Z,37.13
2023-07-27T13:03:32.275Z,36.65
2023-07-27T13:06:01.906Z,36.95
2023-07-27T13:08:30.019Z,37.87
2023-07-27T13:10:57.449Z,37.96
2023-07-27T13:13:24.688Z,38.42
2023-07-27T13:15:51.903Z,37.84
2023-07-27T13:18:19.052Z,37.61
2023-07-27T13:20:46.301Z,37.40
2023-07-27T13:23:13.451Z,38.79
2023-07-27T13:25:40.874Z,39.43
2023-07-27T13:28:08.189Z,39.78
2023-07-27T13:30:35.392Z,40.44
2023-07-27T13:33:02.849Z,40.96
2023-07-27T13:35:30.574Z,41.50
2023-07-27T13:37:57.976Z,41.16
2023-07-27T13:40:25.103Z,41.24
2023-07-27T13:42:53.835Z,41.62
2023-07-27T13:45:21.042Z,41.70
2023-07-27T13:48:02.432Z,41.81
2023-07-27T13:50:36.340Z,41.72
2023-07-27T13:53:05.458Z,42.67
2023-07-27T13:55:32.803Z,43.03
2023-07-27T13:58:00.361Z,43.30
2023-07-27T14:00:27.567Z,43.14
2023-07-27T14:02:56.546Z,43.36
2023-07-27T14:05:23.990Z,43.81
2023-07-27T14:07:51.270Z,44.36
2023-07-27T14:10:18.527Z,44.15
2023-07-27T14:12:45.814Z,44.91
2023-07-27T14:15:12.999Z,45.87
2023-07-27T14:17:40.200Z,45.52
2023-07-27T14:20:08.493Z,46.17
2023-07-27T14:22:37.036Z,45.03
2023-07-27T14:25:04.700Z,45.02
2023-07-27T14:30:04.361Z,46.21
2023-07-27T14:32:32.567Z,46.54
2023-07-27T14:34:59.896Z,46.03
2023-07-27T14:37:27.280Z,45.69
2023-07-27T14:39:54.527Z,45.31
2023-07-27T14:42:22.299Z,45.68
2023-07-27T14:44:50.780Z,45.97
2023-07-27T14:47:18.062Z,46.14
2023-07-27T14:49:57.332Z,46.79
2023-07-27T14:52:27.890Z,47.55
2023-07-27T14:54:57.492Z,46.96
2023-07-27T14:57:24.850Z,47.81
2023-07-27T15:02:28.159Z,47.76
2023-07-27T15:04:56.033Z,47.09
2023-07-27T15:07:23.459Z,47.55
2023-07-27T15:09:51.519Z,47.88
2023-07-27T15:12:18.753Z,47.53
2023-07-27T15:14:46.256Z,47.93
2023-07-27T15:17:13.519Z,48.99
2023-07-27T15:19:42.106Z,49.32
2023-07-27T15:22:09.337Z,48.91
2023-07-27T15:24:36.567Z,48.53
2023-07-27T15:27:04.288Z,48.19
2023-07-27T15:29:31.567Z,48.98
2023-07-27T15:31:58.802Z,48.64
2023-07-27T15:34:25.941Z,48.59
2023-07-27T15:36:53.129Z,49.54
2023-07-27T15:39:20.570Z,49.35
2023-07-27T15:41:47.749Z,49.13
2023-07-27T15:44:15.042Z,48.67
2023-07-27T15:46:42.783Z,48.48
2023-07-27T15:49:09.969Z,48.61
2023-07-27T15:51:37.397Z,48.83
2023-07-27T15:54:04.604Z,49.38
2023-07-27T15:56:32.115Z,49.61
2023-07-27T15:58:59.836Z,50.77
2023-07-27T16:01:31.221Z,51.14
2023-07-27T16:03:58.409Z,51.54
2023-07-27T16:06:25.713Z,52.43
2023-07-27T16:08:52.942Z,52.56
2023-07-27T16:11:20.186Z,52.90
2023-07-27T16:13:47.758Z,52.75
2023-07-27T16:16:15.047Z,53.19
2023-07-27T16:18:42.222Z,53.64
2023-07-27T16:21:09.584Z,54.21
2023-07-27T16:23:36.810Z,54.17
2023-07-27T16:26:05.486Z,53.88
2023-07-27T16:28:32.752Z,53.83
2023-07-27T16:31:00.796Z,53.86
2023-07-27T16:33:28.093Z,53.95
2023-07-27T16:35:55.379Z,54.01
2023-07-27T16:38:22.603Z,53.97
2023-07-27T16:40:54.219Z,54.03
2023-07-27T16:43:21.528Z,54.29
2023-07-27T16:45:48.715Z,54.85
2023-07-27T16:48:17.214Z,55.02
2023-07-27T16:50:45.971Z,55.06
2023-07-27T16:53:13.958Z,55.33
2023-07-27T16:55:42.308Z,56.72
2023-07-27T16:58:09.951Z,57.50
2023-07-27T17:00:37.233Z,58.80
2023-07-27T17:03:04.742Z,59.52
2023-07-27T17:05:40.721Z,60.55
2023-07-27T17:08:09.596Z,60.90
2023-07-27T17:10:37.086Z,62.33
2023-07-27T17:13:04.439Z,62.57
2023-07-27T17:15:32.310Z,62.38
2023-07-27T17:17:59.648Z,62.88
2023-07-27T17:20:27.068Z,62.88
2023-07-27T17:22:54.337Z,63.53
2023-07-27T17:25:21.594Z,64.00
2023-07-27T17:27:48.840Z,63.80
2023-07-27T17:30:16.291Z,63.94
2023-07-27T17:32:43.645Z,64.07
2023-07-27T17:35:11.384Z,63.99
2023-07-27T17:37:38.692Z,64.33
2023-07-27T17:40:06.818Z,64.51
2023-07-27T17:42:34.201Z,64.89
2023-07-27T17:45:03.013Z,64.60
2023-07-27T17:47:30.372Z,64.99
2023-07-27T17:49:59.595Z,65.25
2023-07-27T17:52:27.026Z,65.78
2023-07-27T17:54:54.271Z,66.08
2023-07-27T17:57:21.427Z,66.07
2023-07-27T17:59:48.581Z,65.75
2023-07-27T18:02:15.817Z,65.34
2023-07-27T18:04:42.943Z,65.63
2023-07-27T18:07:10.107Z,65.30
2023-07-27T18:09:37.862Z,64.83
2023-07-27T18:12:05.677Z,64.87
2023-07-27T18:14:33.308Z,64.37
2023-07-27T18:17:00.576Z,64.92
2023-07-27T18:19:27.927Z,64.98
2023-07-27T18:21:56.508Z,64.79
2023-07-27T18:24:28.740Z,65.02
2023-07-27T18:26:58.193Z,65.35
2023-07-27T18:29:25.802Z,63.90
2023-07-27T18:31:53.089Z,64.16
2023-07-27T18:34:20.754Z,65.61
2023-07-27T18:36:47.930Z,67.36
2023-07-27T18:39:15.091Z,68.16
2023-07-27T18:41:42.231Z,68.86
2023-07-27T18:44:09.677Z,70.27
2023-07-27T18:46:37.016Z,71.49
2023-07-27T18:49:04.310Z,72.94
2023-07-27T18:51:32.005Z,75.20
2023-07-27T18:53:59.673Z,77.02
2023-07-27T18:56:27.160Z,78.04
2023-07-27T18:58:54.661Z,78.50
2023-07-27T19:01:21.998Z,79.81
2023-07-27T19:03:50.383Z,81.44
2023-07-27T19:06:18.372Z,82.75
2023-07-27T19:09:11.844Z,84.59
2023-07-27T19:11:40.353Z,82.89
2023-07-27T19:14:08.540Z,82.92
2023-07-27T19:16:37.180Z,82.48
2023-07-27T19:19:06.284Z,82.84
2023-07-27T19:21:34.390Z,83.08
2023-07-27T19:24:02.311Z,83.44
2023-07-27T19:26:30.998Z,83.57
2023-07-27T19:28:58.565Z,83.96
2023-07-27T19:31:26.302Z,84.30
2023-07-27T19:33:53.866Z,83.71
2023-07-27T19:36:21.665Z,83.66
2023-07-27T19:38:48.975Z,84.81
2023-07-27T19:41:17.315Z,85.85
2023-07-27T19:43:44.784Z,86.08
2023-07-27T19:46:12.047Z,86.14
2023-07-27T19:48:39.719Z,85.68
2023-07-27T19:51:06.892Z,85.78
2023-07-27T19:53:34.088Z,85.81
2023-07-27T19:56:04.610Z,86.90
2023-07-27T19:58:32.266Z,87.08
2023-07-27T20:01:00.045Z,86.90
2023-07-27T20:03:28.150Z,86.82
2023-07-27T20:05:55.629Z,86.93
2023-07-27T20:08:35.887Z,87.53
2023-07-27T20:11:03.778Z,87.80
2023-07-27T20:13:31.026Z,88.21
2023-07-27T20:15:58.214Z,88.97
2023-07-27T20:18:25.584Z,89.10
2023-07-27T20:20:52.826Z,89.09
2023-07-27T20:23:21.296Z,89.87
2023-07-27T20:25:48.770Z,90.03
2023-07-27T20:28:16.017Z,90.08
2023-07-27T20:30:43.235Z,91.21
2023-07-27T20:33:10.479Z,91.42
2023-07-27T20:35:38.020Z,91.61
2023-07-27T20:38:05.301Z,91.91
2023-07-27T20:40:33.547Z,92.20
2023-07-27T20:43:00.889Z,92.04
2023-07-27T20:45:28.357Z,92.30
2023-07-27T20:47:55.642Z,92.16
2023-07-27T20:50:22.883Z,92.34
2023-07-27T20:52:50.848Z,92.32
2023-07-27T20:55:18.265Z,92.72
2023-07-27T20:57:48.627Z,92.99
2023-07-27T21:00:16.038Z,93.40
2023-07-27T21:02:43.449Z,93.63
2023-07-27T21:05:10.766Z,93.92
2023-07-27T21:07:38.315Z,93.99
2023-07-27T21:10:05.994Z,93.85
2023-07-27T21:12:33.243Z,93.66
2023-07-27T21:15:01.258Z,93.78
2023-07-27T21:17:30.416Z,93.80
2023-07-27T21:19:57.829Z,93.99
2023-07-27T21:22:25.026Z,94.32
2023-07-27T21:24:52.216Z,94.38
2023-07-27T21:27:19.345Z,93.56
2023-07-27T21:29:46.544Z,93.43
2023-07-27T21:32:13.747Z,94.00
2023-07-27T21:34:40.980Z,94.67
2023-07-27T21:37:08.162Z,94.82
2023-07-27T21:39:35.321Z,94.69
2023-07-27T21:42:02.634Z,95.58
2023-07-27T21:44:30.058Z,96.39
2023-07-27T21:46:57.342Z,97.17
2023-07-27T21:49:24.675Z,97.83
2023-07-27T21:51:51.894Z,97.93
2023-07-27T21:54:19.444Z,98.38
2023-07-27T21:56:46.606Z,98.32
2023-07-27T21:59:13.753Z,99.10
2023-07-27T22:01:40.928Z,99.53
2023-07-27T22:04:08.095Z,99.60
2023-07-27T22:06:35.405Z,99.27
2023-07-27T22:09:04.722Z,99.45
2023-07-27T22:11:31.983Z,99.66
2023-07-27T22:13:59.119Z,100.00
2023-07-27T22:16:26.695Z,100.00
2023-07-27T22:18:53.854Z,99.48
2023-07-27T22:21:20.974Z,99.14
2023-07-27T22:23:48.202Z,98.47
2023-07-27T22:26:18.681Z,98.50
2023-07-27T22:28:45.878Z,98.90
2023-07-27T22:31:14.236Z,99.31
2023-07-27T22:33:41.505Z,99.87
2023-07-27T22:36:09.262Z,100.00
2023-07-27T22:38:37.068Z,100.00
2023-07-27T22:41:04.905Z,100.00
2023-07-27T22:43:32.082Z,100.00
2023-07-27T22:45:59.307Z,100.00
2023-07-27T22:48:26.620Z,100.00
2023-07-27T22:50:53.836Z,100.00
2023-07-27T22:53:21.123Z,100.00
2023-07-27T22:55:50.044Z,100.00
2023-07-27T22:58:17.534Z,100.00
2023-07-27T23:00:44.869Z,100.00
2023-07-27T23:03:12.147Z,100.00
2023-07-27T23:05:39.604Z,100.00
2023-07-27T23:08:07.563Z,100.00
2023-07-27T23:10:34.774Z,100.00
2023-07-27T23:13:02.024Z,100.00
2023-07-27T23:15:29.498Z,99.77
2023-07-27T23:17:57.104Z,99.66
2023-07-27T23:20:24.444Z,100.00
2023-07-27T23:22:51.976Z,99.39
2023-07-27T23:25:19.159Z,98.83
2023-07-27T23:27:46.347Z,99.00
2023-07-27T23:30:13.719Z,99.37
2023-07-27T23:32:41.400Z,99.52
2023-07-27T23:35:09.036Z,99.54
2023-07-27T23:37:36.184Z,99.06
2023-07-27T23:40:03.493Z,98.97
2023-07-27T23:42:30.864Z,98.62
2023-07-27T23:44:58.394Z,97.90
2023-07-27T23:47:25.629Z,98.49
2023-07-27T23:49:52.882Z,98.44
2023-07-27T23:52:20.040Z,98.56
2023-07-27T23:54:47.192Z,98.89
2023-07-27T23:57:14.585Z,98.79
2023-07-27T23:59:41.742Z,98.04
